Time;durP1;ratioP1;P1;durP2;ratioP2;P2;SDS_P1;SDS_P2;PMS_P1;PMS_P2;Temp;Humidity;BMP_temperature;BMP_pressure;BME280_temperature;BME280_humidity;BME280_pressure;Samples;Min_cycle;Max_cycle;Signal;HPM_P1;HPM_P2
2022/08/26 00:01:54;;;;;;;7.43;3.50;;;24.80;78.70;;;26.14;48.23;100227.84;4976512;28;20643;-69
2022/08/26 00:04:23;;;;;;;5.57;4.47;;;24.80;78.80;;;26.14;48.78;100227.84;4970828;28;20687;-70
2022/08/26 00:06:55;;;;;;;6.23;3.80;;;24.70;78.80;;;26.25;48.31;100222.81;4971721;28;20746;-69
2022/08/26 00:09:24;;;;;;;4.57;3.93;;;24.80;79.00;;;26.25;47.95;100222.81;4972302;28;20727;-69
2022/08/26 00:11:53;;;;;;;4.00;3.70;;;24.80;78.90;;;26.22;48.20;100223.25;4987199;28;20658;-69
2022/08/26 00:14:21;;;;;;;3.83;3.50;;;24.80;79.00;;;26.25;48.46;100220.13;4970028;28;20762;-69
2022/08/26 00:16:54;;;;;;;4.57;3.80;;;24.80;79.20;;;26.13;48.84;100220.84;4971837;28;21439;-69
2022/08/26 00:19:22;;;;;;;4.30;3.67;;;24.70;79.20;;;26.20;48.30;100228.00;4971959;28;20623;-69
2022/08/26 00:21:49;;;;;;;4.00;3.53;;;24.80;78.80;;;26.16;47.67;100224.97;4969518;28;20680;-68
2022/08/26 00:24:19;;;;;;;4.13;3.73;;;24.80;78.40;;;26.09;47.99;100222.34;4971587;28;20648;-69
2022/08/26 00:26:46;;;;;;;6.80;4.27;;;24.80;78.10;;;25.96;48.11;100222.44;4972374;28;21193;-69
2022/08/26 00:29:13;;;;;;;6.10;4.50;;;24.70;78.20;;;26.02;48.06;100221.56;4971781;28;20636;-68
2022/08/26 00:31:41;;;;;;;4.40;3.93;;;24.60;78.00;;;26.03;47.44;100220.53;4958995;28;21232;-69
2022/08/26 00:34:11;;;;;;;4.40;4.00;;;24.60;78.10;;;26.01;47.89;100219.94;4966915;28;21450;-69
2022/08/26 00:36:38;;;;;;;5.90;4.50;;;24.60;78.00;;;26.03;47.57;100225.88;4957321;28;20719;-69
2022/08/26 00:39:07;;;;;;;4.73;4.20;;;24.60;77.90;;;26.01;47.98;100222.59;4970781;28;20715;-70
2022/08/26 00:41:38;;;;;;;5.37;4.20;;;24.70;78.70;;;25.99;47.51;100224.69;4979613;28;20687;-70
2022/08/26 00:44:07;;;;;;;4.20;3.80;;;24.60;78.00;;;25.93;48.43;100225.56;4953622;28;20754;-70
2022/08/26 00:46:41;;;;;;;4.97;4.47;;;24.60;78.80;;;25.82;48.66;100220.09;4972530;28;20718;-69
2022/08/26 00:49:19;;;;;;;4.50;4.10;;;24.50;79.30;;;25.88;48.78;100220.03;4970715;28;21031;-69
2022/08/26 00:51:54;;;;;;;6.20;4.07;;;24.40;79.80;;;25.80;48.99;100216.81;4976050;28;20757;-70
2022/08/26 00:54:26;;;;;;;5.40;4.30;;;24.40;80.20;;;25.75;49.30;100220.16;4989840;28;21186;-70
2022/08/26 00:57:04;;;;;;;7.00;4.80;;;24.40;80.50;;;25.69;49.27;100218.34;4988752;28;20619;-69
2022/08/26 00:59:35;;;;;;;7.50;4.60;;;24.30;80.70;;;25.76;49.53;100215.63;4968050;28;20640;-69
2022/08/26 01:02:05;;;;;;;5.37;4.77;;;24.40;81.50;;;25.77;50.70;100220.75;4988894;28;21234;-68
2022/08/26 01:04:48;;;;;;;6.80;4.57;;;24.40;82.60;;;25.78;50.38;100221.56;4963088;28;20647;-69
2022/08/26 01:07:21;;;;;;;5.27;4.47;;;24.40;82.60;;;25.72;51.13;100217.94;4953862;28;20654;-69
2022/08/26 01:09:49;;;;;;;5.03;4.40;;;24.30;83.70;;;25.71;51.21;100218.97;4969459;28;20643;-69
2022/08/26 01:12:16;;;;;;;6.37;4.47;;;24.40;84.60;;;25.72;51.14;100220.59;4986193;28;21017;-69
2022/08/26 01:14:48;;;;;;;5.40;4.20;;;24.30;84.00;;;25.74;49.92;100223.06;4984766;28;20665;-69
2022/08/26 01:17:16;;;;;;;5.33;4.47;;;24.40;83.20;;;25.72;50.09;100223.28;4971795;28;20622;-69
2022/08/26 01:19:52;;;;;;;6.47;3.90;;;24.30;82.80;;;25.66;50.13;100216.13;4969091;28;20632;-69
2022/08/26 01:22:29;;;;;;;4.13;3.73;;;24.30;82.90;;;25.58;50.08;100221.72;4980340;28;20638;-69
2022/08/26 01:25:00;;;;;;;6.47;4.60;;;24.20;83.20;;;25.57;50.56;100217.44;4974440;28;20766;-70
2022/08/26 01:27:30;;;;;;;9.10;4.80;;;24.20;83.40;;;25.61;49.97;100215.97;4954249;28;20648;-69
2022/08/26 01:29:59;;;;;;;4.67;3.73;;;24.10;83.40;;;25.48;50.23;100226.75;4968624;28;21087;-69
2022/08/26 01:32:27;;;;;;;5.37;3.60;;;24.10;83.50;;;25.46;50.04;100219.97;4968206;28;20671;-69
2022/08/26 01:34:54;;;;;;;6.13;3.77;;;24.10;83.20;;;25.19;50.27;100224.66;4965814;28;20646;-69
2022/08/26 01:37:26;;;;;;;4.80;3.53;;;23.90;82.60;;;25.21;49.78;100222.59;4969129;28;20636;-69
2022/08/26 01:39:55;;;;;;;4.30;3.70;;;23.90;82.60;;;25.16;49.81;100223.22;4970056;28;20608;-69
2022/08/26 01:42:26;;;;;;;7.23;4.60;;;23.80;82.80;;;25.03;50.60;100227.81;4970555;28;20677;-69
2022/08/26 01:45:07;;;;;;;7.00;4.47;;;23.70;83.10;;;24.92;50.74;100228.47;4969044;28;20636;-70
2022/08/26 01:47:35;;;;;;;4.87;4.37;;;23.60;83.50;;;24.87;51.01;100229.13;4970233;28;20729;-70
2022/08/26 01:50:09;;;;;;;5.40;4.70;;;23.50;83.90;;;24.87;50.97;100237.13;4965624;28;21193;-69
2022/08/26 01:52:44;;;;;;;5.03;4.43;;;23.50;84.30;;;24.94;50.54;100237.91;4974257;28;20713;-69
2022/08/26 01:55:18;;;;;;;4.50;4.10;;;23.60;84.10;;;24.95;51.09;100241.41;4973318;28;20619;-68
2022/08/26 01:58:04;;;;;;;6.90;4.40;;;23.60;84.40;;;24.90;50.80;100239.38;4972700;28;20650;-69
2022/08/26 02:00:33;;;;;;;4.93;3.90;;;23.50;84.60;;;24.80;51.26;100233.66;4974315;28;21104;-69
2022/08/26 02:03:15;;;;;;;5.10;4.60;;;23.50;84.90;;;24.75;51.82;100235.31;4971457;28;21254;-69
2022/08/26 02:06:00;;;;;;;4.23;3.83;;;23.40;85.20;;;24.77;51.19;100230.63;4974532;28;21069;-69
2022/08/26 02:08:32;;;;;;;4.23;3.80;;;23.40;85.10;;;24.78;51.31;100229.56;4968020;28;20731;-68
2022/08/26 02:10:59;;;;;;;7.30;3.63;;;23.40;85.00;;;24.82;50.99;100231.59;4955680;28;20634;-69
2022/08/26 02:13:29;;;;;;;7.00;3.97;;;23.40;85.10;;;24.74;51.20;100231.84;4972481;28;21242;-69
2022/08/26 02:15:59;;;;;;;6.17;4.07;;;23.40;85.20;;;24.64;51.33;100237.59;4971818;28;20628;-69
2022/08/26 02:18:29;;;;;;;5.50;4.50;;;23.30;85.30;;;24.51;51.76;100232.28;4955476;28;21083;-70
2022/08/26 02:20:56;;;;;;;4.47;3.73;;;23.30;85.50;;;24.59;51.64;100225.94;4972666;28;20707;-69
2022/08/26 02:23:25;;;;;;;5.13;4.53;;;23.30;85.70;;;24.66;51.59;100234.69;4974355;28;20651;-69
2022/08/26 02:26:20;;;;;;;14.03;4.40;;;23.30;85.70;;;24.65;51.68;100225.91;4974062;28;20627;-69
2022/08/26 02:29:06;;;;;;;5.07;4.17;;;23.20;86.10;;;24.63;51.58;100233.31;4965089;28;21269;-69
2022/08/26 02:31:33;;;;;;;4.20;3.80;;;23.20;86.10;;;24.53;51.72;100226.78;4971605;28;20666;-68
2022/08/26 02:34:25;;;;;;;7.57;4.50;;;23.20;86.40;;;24.60;51.82;100231.03;4972628;28;20639;-69
2022/08/26 02:36:57;;;;;;;5.70;4.10;;;23.20;86.40;;;24.73;51.70;100238.19;4954601;28;21203;-69
2022/08/26 02:39:24;;;;;;;4.70;3.97;;;23.30;86.50;;;24.72;51.31;100231.22;4955730;28;20711;-69
2022/08/26 02:41:51;;;;;;;4.30;3.90;;;23.30;86.40;;;24.78;51.16;100224.22;4966163;28;20643;-69
2022/08/26 02:44:18;;;;;;;4.97;4.50;;;23.30;86.10;;;24.78;51.50;100232.25;4971775;28;20678;-69
2022/08/26 02:46:46;;;;;;;4.40;4.00;;;23.30;86.00;;;24.75;50.85;100246.81;4970298;28;21445;-70
2022/08/26 02:49:15;;;;;;;7.50;4.60;;;23.30;85.90;;;24.64;51.19;100245.59;4971078;28;21235;-70
2022/08/26 02:51:43;;;;;;;5.10;3.67;;;23.30;85.90;;;24.63;51.20;100248.47;4971684;28;21044;-66
2022/08/26 02:54:09;;;;;;;4.20;3.80;;;23.20;86.00;;;24.46;51.41;100244.63;4987538;28;21008;-70
2022/08/26 02:56:37;;;;;;;6.50;3.97;;;23.10;85.90;;;24.45;51.90;100241.13;4971506;28;20647;-69
2022/08/26 02:59:04;;;;;;;3.70;3.10;;;23.10;86.20;;;24.38;51.74;100240.31;4973478;28;20612;-69
2022/08/26 03:01:34;;;;;;;5.53;3.70;;;23.00;86.40;;;24.30;51.75;100243.22;4973528;28;20694;-69
2022/08/26 03:04:04;;;;;;;3.90;3.50;;;23.00;86.80;;;24.30;52.07;100239.75;4972952;28;20647;-68
2022/08/26 03:06:32;;;;;;;5.93;3.97;;;23.00;87.00;;;24.21;51.95;100236.50;4972532;28;20638;-69
2022/08/26 03:08:58;;;;;;;7.93;4.60;;;22.80;87.30;;;24.18;52.12;100239.56;4939095;28;20634;-69
2022/08/26 03:11:25;;;;;;;4.70;3.77;;;22.90;87.50;;;24.00;52.61;100247.31;4972751;28;21180;-69
2022/08/26 03:13:59;;;;;;;4.37;3.80;;;22.70;87.90;;;24.00;52.88;100250.00;4971150;28;20655;-69
2022/08/26 03:16:36;;;;;;;6.83;3.60;;;22.70;88.30;;;23.91;53.26;100248.59;4971187;28;20762;-69
2022/08/26 03:19:06;;;;;;;6.37;4.50;;;22.60;88.60;;;23.92;53.24;100251.03;4970916;28;21009;-69
2022/08/26 03:21:35;;;;;;;11.13;4.70;;;22.60;88.90;;;23.88;53.25;100247.13;4972871;28;20635;-69
2022/08/26 03:24:04;;;;;;;6.00;4.90;;;22.60;89.20;;;23.87;53.24;100242.03;4972706;28;21271;-69
2022/08/26 03:26:31;;;;;;;5.10;4.33;;;22.60;89.50;;;23.95;52.98;100243.66;4972319;28;21275;-69
2022/08/26 03:31:44;;;;;;;6.30;4.23;;;22.60;89.50;;;23.98;53.07;100238.72;4972116;28;20614;-69
2022/08/26 03:34:13;;;;;;;6.33;4.67;;;22.60;90.00;;;24.05;52.70;100241.41;4973394;28;20643;-69
2022/08/26 03:36:40;;;;;;;5.47;4.00;;;22.60;89.40;;;24.03;52.83;100241.59;4972265;28;21214;-69
2022/08/26 03:39:11;;;;;;;4.63;4.17;;;22.60;89.40;;;23.95;53.00;100239.16;4972222;28;20671;-69
2022/08/26 03:41:39;;;;;;;5.47;4.33;;;22.60;89.60;;;23.96;52.87;100235.44;4971635;28;20612;-69
2022/08/26 03:44:10;;;;;;;6.17;4.73;;;22.60;89.70;;;23.97;52.72;100236.28;4972219;28;20655;-70
2022/08/26 03:46:38;;;;;;;4.80;4.20;;;22.60;89.80;;;23.86;53.41;100238.53;4971444;28;20722;-69
2022/08/26 03:49:06;;;;;;;4.37;3.97;;;22.50;90.00;;;23.87;53.37;100237.50;4970665;28;20616;-68
2022/08/26 03:51:36;;;;;;;6.10;4.73;;;22.50;90.00;;;23.86;53.24;100233.22;4962867;28;20643;-69
2022/08/26 03:54:06;;;;;;;5.67;4.40;;;22.50;90.10;;;23.90;53.37;100230.94;4985283;28;20655;-68
2022/08/26 03:56:35;;;;;;;4.13;3.70;;;22.50;90.10;;;23.94;53.72;100236.69;4969388;28;20734;-69
2022/08/26 03:59:04;;;;;;;4.43;4.00;;;22.50;90.10;;;23.89;53.23;100234.66;4968425;28;20644;-68
2022/08/26 04:01:34;;;;;;;5.20;4.20;;;22.50;90.10;;;23.75;53.58;100230.31;4970619;28;20651;-69
2022/08/26 04:04:02;;;;;;;7.73;4.50;;;22.50;90.30;;;23.66;53.84;100234.25;4982176;28;20660;-67
2022/08/26 04:06:37;;;;;;;5.90;4.70;;;22.40;90.40;;;23.67;53.90;100230.53;4972548;28;20643;-69
2022/08/26 04:09:08;;;;;;;4.27;3.87;;;22.30;90.40;;;23.68;53.75;100232.19;4971061;28;20640;-69
2022/08/26 04:11:38;;;;;;;4.93;4.43;;;22.30;90.50;;;23.65;54.09;100240.56;4967864;28;20630;-68
2022/08/26 04:14:13;;;;;;;5.63;4.07;;;22.30;90.70;;;23.59;54.03;100238.72;4953227;28;20671;-70
2022/08/26 04:16:47;;;;;;;6.40;4.50;;;22.30;90.80;;;23.51;54.39;100238.94;4966142;28;20612;-68
2022/08/26 04:19:15;;;;;;;6.33;5.00;;;22.30;90.90;;;23.53;54.39;100242.22;4986283;28;20766;-68
2022/08/26 04:21:47;;;;;;;6.33;4.80;;;22.20;91.00;;;23.52;54.11;100240.56;4968354;28;21219;-68
2022/08/26 04:24:22;;;;;;;7.17;5.10;;;22.20;91.10;;;23.55;54.47;100243.63;4972133;28;20643;-69
2022/08/26 04:26:49;;;;;;;5.97;4.93;;;22.20;91.20;;;23.56;54.08;100239.13;4972645;28;20790;-69
2022/08/26 04:29:22;;;;;;;8.33;5.70;;;22.20;91.20;;;23.60;54.38;100243.00;4971336;28;20646;-70
2022/08/26 04:31:53;;;;;;;10.70;5.40;;;22.30;91.20;;;23.70;53.89;100241.59;4965420;28;20624;-68
2022/08/26 04:34:27;;;;;;;8.17;5.10;;;22.30;91.10;;;23.70;53.96;100251.44;4954071;28;20751;-69
2022/08/26 04:36:57;;;;;;;8.73;4.90;;;22.30;91.10;;;23.70;54.07;100246.91;4954815;28;20623;-70
2022/08/26 04:39:29;;;;;;;6.47;5.00;;;22.30;91.10;;;23.77;53.72;100242.41;4969852;28;20730;-69
2022/08/26 04:41:58;;;;;;;8.47;4.90;;;22.40;91.20;;;23.79;53.89;100250.19;4973212;28;20631;-68
2022/08/26 04:44:38;;;;;;;6.50;5.20;;;22.40;91.20;;;23.89;53.64;100248.75;4971066;28;20749;-69
2022/08/26 04:47:13;;;;;;;7.07;4.80;;;22.40;91.40;;;23.86;53.54;100256.34;4952558;28;20643;-69
2022/08/26 04:49:40;;;;;;;9.50;5.17;;;22.50;91.10;;;23.92;53.98;100253.69;4970559;28;21179;-69
2022/08/26 04:52:07;;;;;;;10.10;4.47;;;22.50;91.00;;;23.98;53.45;100251.25;4985238;28;21035;-69
2022/08/26 04:54:34;;;;;;;6.33;4.93;;;22.50;90.90;;;24.02;53.02;100247.97;4971450;28;20635;-69
2022/08/26 04:57:01;;;;;;;6.27;4.93;;;22.60;90.90;;;24.00;53.41;100247.31;4971586;28;20624;-69
2022/08/26 04:59:28;;;;;;;6.10;4.93;;;22.60;90.90;;;24.07;53.28;100245.50;4971445;28;21083;-69
2022/08/26 05:01:58;;;;;;;6.53;5.07;;;22.60;90.90;;;24.09;52.99;100251.47;4985060;28;20628;-69
2022/08/26 05:04:25;;;;;;;6.30;4.70;;;22.60;90.90;;;24.07;52.81;100253.50;4968248;28;21065;-69
2022/08/26 05:06:52;;;;;;;12.63;4.67;;;22.60;90.80;;;24.10;53.09;100261.09;4971156;28;20612;-68
2022/08/26 05:09:25;;;;;;;9.03;4.80;;;22.60;90.80;;;23.98;53.40;100259.25;4972565;28;20715;-68
2022/08/26 05:11:52;;;;;;;4.97;4.47;;;22.60;90.80;;;24.04;53.34;100258.41;4968771;28;20701;-69
2022/08/26 05:14:21;;;;;;;6.07;4.80;;;22.70;90.90;;;24.02;53.58;100258.63;4970989;28;20651;-68
2022/08/26 05:16:49;;;;;;;4.07;3.67;;;22.60;90.90;;;23.99;53.58;100252.88;4970757;28;21094;-68
2022/08/26 05:19:16;;;;;;;8.20;4.73;;;22.60;91.00;;;23.92;53.27;100258.19;4969973;28;20706;-69
2022/08/26 05:21:47;;;;;;;5.93;4.60;;;22.60;91.00;;;23.98;52.95;100254.69;4989445;28;21202;-68
2022/08/26 05:24:15;;;;;;;6.77;5.80;;;22.50;91.00;;;24.02;53.38;100260.47;4974881;28;20639;-68
2022/08/26 05:26:43;;;;;;;8.93;5.50;;;22.60;91.00;;;24.05;53.30;100260.06;4974054;28;20631;-69
2022/08/26 05:29:11;;;;;;;6.53;4.83;;;22.60;91.30;;;24.04;53.01;100264.59;4975533;28;20659;-69
2022/08/26 05:31:38;;;;;;;7.20;5.37;;;22.60;91.00;;;24.03;53.07;100262.91;4974583;28;21053;-68
2022/08/26 05:34:05;;;;;;;9.40;5.33;;;22.60;91.00;;;24.09;53.22;100267.44;4966886;28;20678;-68
2022/08/26 05:36:35;;;;;;;6.37;5.00;;;22.70;90.80;;;24.10;52.84;100270.94;4973305;28;20626;-67
2022/08/26 05:39:05;;;;;;;8.27;4.73;;;22.70;90.80;;;24.10;53.06;100268.28;4972928;28;20647;-68
2022/08/26 05:41:36;;;;;;;6.10;4.93;;;22.70;90.80;;;24.16;52.88;100272.78;4974681;28;20639;-68
2022/08/26 05:44:09;;;;;;;6.70;4.40;;;22.80;90.80;;;24.26;52.92;100284.66;4972754;28;20713;-68
2022/08/26 05:46:38;;;;;;;5.87;4.40;;;22.80;90.80;;;24.39;52.24;100286.47;4972960;28;20632;-68
2022/08/26 05:49:07;;;;;;;4.40;4.00;;;22.90;90.70;;;24.81;51.28;100293.19;4973326;28;20646;-68
2022/08/26 05:51:40;;;;;;;6.97;3.77;;;23.20;90.40;;;25.48;49.90;100290.84;4972667;28;20630;-69
2022/08/26 05:54:07;;;;;;;4.60;4.20;;;23.70;89.20;;;26.10;48.02;100290.00;4973705;28;20671;-68
2022/08/26 05:56:38;;;;;;;6.23;5.10;;;24.10;87.20;;;26.73;46.01;100290.63;4974312;28;21009;-68
2022/08/26 05:59:10;;;;;;;7.27;5.40;;;24.60;85.40;;;27.46;44.61;100291.38;4956831;28;20690;-67
2022/08/26 06:01:42;;;;;;;7.07;4.90;;;25.20;83.30;;;28.36;43.18;100298.22;4965272;28;20644;-69
2022/08/26 06:04:10;;;;;;;10.97;5.57;;;25.80;81.10;;;29.37;40.94;100301.16;4974148;28;20673;-68
2022/08/26 06:06:40;;;;;;;9.40;5.00;;;26.50;79.10;;;30.40;38.76;100301.63;4972685;28;20616;-68
2022/08/26 06:09:09;;;;;;;5.43;4.73;;;27.20;77.00;;;31.39;36.90;100305.84;4973517;28;20701;-69
2022/08/26 06:11:38;;;;;;;5.23;4.70;;;27.90;75.00;;;31.96;35.55;100306.16;4980094;28;20643;-68
2022/08/26 06:14:06;;;;;;;5.13;4.63;;;28.40;73.10;;;32.52;35.18;100310.06;4972849;28;21050;-69
2022/08/26 06:16:38;;;;;;;5.70;5.20;;;28.90;72.00;;;33.10;34.25;100303.63;4955575;28;20646;-69
2022/08/26 06:19:09;;;;;;;9.30;5.23;;;29.30;70.60;;;33.30;33.99;100300.16;4974168;28;20619;-69
2022/08/26 06:21:40;;;;;;;9.00;5.67;;;29.70;69.10;;;33.41;32.82;100301.81;4970652;28;21211;-69
2022/08/26 06:27:01;;;;;;;11.70;5.90;;;30.60;66.90;;;34.22;32.53;100300.00;4955328;28;20729;-69
2022/08/26 06:29:33;;;;;;;7.90;5.67;;;31.20;65.30;;;35.01;31.12;100317.13;4968775;28;20801;-70
2022/08/26 06:32:03;;;;;;;10.00;5.40;;;31.80;64.20;;;35.84;29.98;100312.56;4972843;28;20643;-69
2022/08/26 06:34:31;;;;;;;8.77;5.67;;;32.40;63.00;;;36.58;29.21;100317.63;4971326;28;20658;-69
2022/08/26 06:37:01;;;;;;;6.40;5.40;;;32.90;61.70;;;36.95;28.90;100332.44;4973640;28;20623;-69
2022/08/26 06:39:30;;;;;;;6.50;5.47;;;33.30;61.00;;;37.39;27.98;100326.69;4955658;28;20711;-68
2022/08/26 06:41:59;;;;;;;5.73;5.23;;;33.70;60.10;;;38.40;26.43;100326.69;4974615;28;20627;-69
2022/08/26 06:44:35;;;;;;;5.50;5.00;;;34.20;59.00;;;37.82;27.40;100339.94;4988170;28;20682;-67
2022/08/26 06:47:02;;;;;;;6.93;5.50;;;34.30;58.30;;;38.04;27.67;100320.22;4990367;28;20629;-69
2022/08/26 06:49:29;;;;;;;5.67;5.17;;;34.20;58.80;;;39.02;26.51;100321.66;4997258;28;20640;-69
2022/08/26 06:51:56;;;;;;;5.77;5.17;;;34.60;58.30;;;40.23;24.49;100325.91;4972304;28;20642;-67
2022/08/26 06:54:25;;;;;;;9.30;5.20;;;35.20;57.10;;;40.97;23.46;100326.91;4972574;28;21219;-69
2022/08/26 06:56:54;;;;;;;6.70;5.03;;;35.90;55.80;;;41.85;22.79;100334.88;4972889;28;20623;-70
2022/08/26 06:59:22;;;;;;;7.40;5.40;;;36.60;54.60;;;42.08;22.94;100334.38;4967805;28;20615;-68
2022/08/26 07:01:49;;;;;;;10.00;5.13;;;37.00;54.00;;;41.41;22.87;100330.50;4964770;28;20619;-69
2022/08/26 07:04:16;;;;;;;5.07;4.60;;;36.90;53.50;;;40.04;24.58;100324.53;4972035;28;20662;-68
2022/08/26 07:06:50;;;;;;;5.53;4.93;;;36.40;54.20;;;37.61;27.86;100316.81;4972275;28;20731;-69
2022/08/26 07:09:21;;;;;;;5.93;5.33;;;35.10;54.50;;;35.53;30.67;100313.06;4971084;28;20668;-67
2022/08/26 07:11:50;;;;;;;7.87;5.30;;;33.40;56.70;;;34.29;32.25;100314.03;4971681;28;20635;-68
2022/08/26 07:14:17;;;;;;;17.73;5.83;;;32.20;58.70;;;33.20;34.33;100317.16;4972972;28;21254;-67
2022/08/26 07:16:48;;;;;;;6.60;5.53;;;31.40;60.40;;;32.49;35.00;100316.00;4973455;28;21074;-69
2022/08/26 07:19:20;;;;;;;6.70;5.10;;;30.60;61.80;;;32.04;36.50;100316.47;4970908;28;20674;-68
2022/08/26 07:22:06;;;;;;;5.80;5.10;;;30.20;63.00;;;31.89;36.52;100310.09;4972843;28;20682;-70
2022/08/26 07:24:40;;;;;;;8.60;6.30;;;30.00;63.90;;;31.58;37.03;100322.53;4975608;28;20615;-70
2022/08/26 07:27:20;;;;;;;5.30;4.90;;;29.70;64.40;;;31.27;37.68;100313.25;4974241;28;20643;-69
2022/08/26 07:29:47;;;;;;;7.57;5.50;;;29.60;64.90;;;31.94;36.73;100318.28;4973352;28;20631;-71
2022/08/26 07:32:18;;;;;;;8.43;4.90;;;29.70;65.10;;;33.31;34.29;100326.09;4985137;28;21153;-70
2022/08/26 07:34:48;;;;;;;13.90;5.63;;;30.40;64.30;;;34.45;33.09;100312.94;4965446;28;20667;-70
2022/08/26 07:37:22;;;;;;;10.13;5.33;;;31.20;62.70;;;35.67;30.55;100324.94;4957517;28;20723;-71
2022/08/26 07:39:52;;;;;;;6.07;5.40;;;32.10;61.00;;;35.69;30.91;100317.31;4973951;28;21262;-69
2022/08/26 07:42:21;;;;;;;6.73;5.10;;;32.40;60.20;;;35.82;30.44;100322.09;4941491;28;21231;-71
2022/08/26 07:44:49;;;;;;;8.40;5.37;;;32.50;59.90;;;37.04;28.87;100322.50;4973652;28;20718;-69
2022/08/26 07:47:17;;;;;;;6.70;4.93;;;33.20;59.00;;;38.50;27.08;100321.06;4989611;28;20623;-69
2022/08/26 07:49:55;;;;;;;10.53;5.77;;;34.30;57.40;;;39.98;25.32;100333.94;4971985;28;20742;-69
2022/08/26 07:52:24;;;;;;;5.37;4.87;;;35.40;55.90;;;40.39;24.36;100336.44;4956126;28;20730;-69
2022/08/26 07:54:55;;;;;;;6.20;5.70;;;36.10;54.30;;;40.31;24.46;100332.56;4972357;28;20659;-67
2022/08/26 07:57:23;;;;;;;5.70;5.10;;;35.90;54.40;;;40.86;23.66;100342.00;4972495;28;21005;-67
2022/08/26 07:59:52;;;;;;;5.80;5.30;;;36.40;53.70;;;40.53;24.10;100337.97;4969268;28;20627;-67
2022/08/26 08:02:26;;;;;;;4.73;4.40;;;36.30;53.20;;;41.31;23.32;100339.03;4971442;28;20612;-68
2022/08/26 08:04:55;;;;;;;5.90;5.40;;;36.70;52.90;;;42.10;22.66;100345.81;4969314;28;20631;-66
2022/08/26 08:07:22;;;;;;;5.60;5.10;;;37.30;52.40;;;42.75;21.56;100350.09;4986141;28;20643;-66
2022/08/26 08:10:16;;;;;;;4.70;4.40;;;37.80;51.40;;;43.37;21.35;100342.00;4971567;28;21186;-68
2022/08/26 08:12:43;;;;;;;5.87;5.37;;;38.10;50.70;;;43.07;21.51;100354.94;4970063;28;20663;-67
2022/08/26 08:15:12;;;;;;;6.90;5.53;;;37.90;50.40;;;42.57;21.82;100334.88;4973633;28;20619;-67
2022/08/26 08:17:44;;;;;;;6.67;5.97;;;37.70;50.70;;;42.72;21.49;100329.63;4972514;28;20705;-66
2022/08/26 08:20:13;;;;;;;6.37;5.87;;;37.80;50.50;;;42.80;21.44;100339.75;4973531;28;20638;-67
2022/08/26 08:22:40;;;;;;;6.97;6.07;;;37.70;50.40;;;43.62;21.06;100340.97;4973273;28;20643;-67
2022/08/26 08:25:10;;;;;;;7.17;4.93;;;38.40;49.90;;;45.19;19.17;100346.81;4971488;28;20732;-65
2022/08/26 08:27:39;;;;;;;5.77;5.37;;;39.30;49.10;;;46.49;18.57;100350.47;4972280;28;20619;-66
2022/08/26 08:30:08;;;;;;;13.67;6.10;;;40.20;48.20;;;47.34;17.31;100346.94;4970185;28;20728;-67
2022/08/26 08:32:39;;;;;;;5.63;5.13;;;41.00;47.20;;;48.36;16.72;100348.97;4972747;28;20635;-67
2022/08/26 08:35:07;;;;;;;5.70;5.30;;;41.70;46.70;;;47.90;16.78;100342.59;4973230;28;20669;-67
2022/08/26 08:37:37;;;;;;;5.90;5.50;;;41.80;46.10;;;47.51;17.30;100329.97;4970948;28;21047;-66
2022/08/26 08:40:06;;;;;;;6.13;5.60;;;41.70;46.10;;;47.86;16.92;100338.97;4973395;28;20711;-66
2022/08/26 08:42:55;;;;;;;6.10;5.50;;;41.70;46.00;;;47.47;17.30;100334.63;4972111;28;20777;-66
2022/08/26 08:45:47;;;;;;;6.80;5.53;;;41.70;45.90;;;44.52;19.91;100328.91;4974909;28;20640;-66
2022/08/26 08:48:24;;;;;;;5.87;5.40;;;40.40;46.60;;;41.92;22.73;100324.19;4972542;28;21039;-67
2022/08/26 08:51:22;;;;;;;6.57;5.97;;;39.10;47.80;;;40.47;23.77;100317.34;4971466;28;20666;-66
2022/08/26 08:53:53;;;;;;;6.50;5.90;;;37.70;49.30;;;38.69;26.27;100316.34;4988815;28;21231;-67
2022/08/26 08:56:38;;;;;;;13.43;5.17;;;36.30;50.90;;;37.83;27.58;100319.78;4973630;28;20628;-66
2022/08/26 08:59:30;;;;;;;20.63;7.77;;;35.60;52.10;;;36.98;28.52;100315.53;4982849;28;20683;-66
2022/08/26 09:02:10;;;;;;;6.63;6.03;;;34.80;53.10;;;36.33;30.06;100315.13;4971983;28;20646;-69
2022/08/26 09:05:20;;;;;;;8.13;5.93;;;34.20;54.20;;;35.14;32.14;100314.94;4973547;28;20643;-67
2022/08/26 09:08:11;;;;;;;6.53;5.93;;;33.40;55.40;;;34.49;32.40;100303.19;4948263;28;20684;-66
2022/08/26 09:10:58;;;;;;;6.83;6.13;;;32.60;56.80;;;34.06;33.73;100318.16;4986598;28;21298;-66
2022/08/26 09:13:27;;;;;;;5.27;4.77;;;32.20;57.90;;;34.04;33.17;100311.38;4972080;28;21302;-66
2022/08/26 09:16:06;;;;;;;6.33;5.50;;;31.90;58.20;;;34.05;33.33;100311.13;4969078;28;20634;-67
2022/08/26 09:18:43;;;;;;;10.70;5.73;;;31.80;58.50;;;34.32;33.18;100310.81;4974126;28;20611;-67
2022/08/26 09:21:15;;;;;;;9.30;5.90;;;32.00;58.70;;;34.84;32.21;100305.78;4973501;28;20746;-68
2022/08/26 09:23:44;;;;;;;6.87;5.27;;;32.20;58.50;;;35.56;32.09;100312.53;4973586;28;21039;-67
2022/08/26 09:26:39;;;;;;;6.70;5.97;;;32.60;58.30;;;36.84;29.86;100314.59;4956605;28;20755;-67
2022/08/26 09:29:28;;;;;;;7.67;5.80;;;33.30;57.70;;;40.00;26.16;100318.06;4967772;28;20651;-66
2022/08/26 09:32:22;;;;;;;6.33;5.40;;;34.50;56.40;;;45.89;19.55;100323.25;4968882;28;20639;-67
2022/08/26 09:35:09;;;;;;;10.90;5.67;;;38.00;52.80;;;50.35;15.69;100329.03;4967952;28;20659;-65
2022/08/26 09:37:47;;;;;;;6.97;6.37;;;40.90;49.50;;;51.56;15.32;100328.59;4971111;28;20725;-67
2022/08/26 09:40:34;;;;;;;5.80;5.40;;;43.00;47.00;;;51.36;14.47;100316.19;4968714;28;21239;-67
2022/08/26 09:43:18;;;;;;;6.90;6.30;;;44.40;45.20;;;49.08;16.83;100310.13;4949731;28;20739;-67
2022/08/26 09:46:08;;;;;;;7.00;6.50;;;43.30;45.50;;;48.37;17.40;100305.50;4982364;28;20639;-66
2022/08/26 09:48:38;;;;;;;5.53;5.13;;;42.80;45.90;;;49.96;15.72;100314.00;4970750;28;20619;-66
2022/08/26 09:51:31;;;;;;;7.00;6.37;;;43.20;45.60;;;52.39;14.53;100316.03;4952121;28;20654;-66
2022/08/26 09:54:01;;;;;;;7.27;6.20;;;44.20;44.70;;;53.61;13.44;100302.09;4968972;28;20676;-66
2022/08/26 09:56:34;;;;;;;5.87;5.13;;;45.30;43.80;;;54.13;12.64;100308.53;4969540;28;20639;-67
2022/08/26 09:59:02;;;;;;;7.13;6.40;;;45.90;43.20;;;53.10;13.69;100299.13;4969595;28;21271;-66
2022/08/26 10:01:42;;;;;;;7.00;6.40;;;45.80;42.70;;;54.55;12.81;100307.38;4966722;28;20642;-67
2022/08/26 10:04:23;;;;;;;7.53;6.83;;;46.70;42.40;;;54.13;12.94;100291.00;4969851;28;20665;-66
2022/08/26 10:07:07;;;;;;;6.73;6.30;;;46.70;42.00;;;55.03;12.13;100287.72;4967194;28;20668;-67
2022/08/26 10:09:39;;;;;;;7.20;6.70;;;47.30;41.60;;;55.66;12.53;100283.25;4956086;28;20620;-67
2022/08/26 10:12:12;;;;;;;7.70;7.00;;;47.90;41.00;;;55.59;12.56;100280.56;4972292;28;21016;-67
2022/08/26 10:14:48;;;;;;;6.27;5.87;;;48.10;40.80;;;54.71;12.23;100271.31;4973922;28;20666;-67
2022/08/26 10:17:25;;;;;;;6.83;6.40;;;47.70;40.70;;;54.91;12.43;100257.50;4958038;28;20677;-65
2022/08/26 10:20:06;;;;;;;7.40;6.80;;;47.50;40.90;;;54.44;13.26;100253.63;4989779;28;20722;-67
2022/08/26 10:23:12;;;;;;;5.97;5.57;;;47.30;41.00;;;53.55;13.02;100242.38;4987126;28;21237;-67
2022/08/26 10:25:57;;;;;;;8.23;6.37;;;46.80;41.40;;;51.77;14.11;100228.50;4973321;28;20626;-68
2022/08/26 10:29:05;;;;;;;6.63;6.13;;;45.90;41.70;;;49.79;15.98;100228.63;4973064;28;20758;-67
2022/08/26 10:32:01;;;;;;;7.67;6.17;;;44.70;42.60;;;47.23;18.13;100224.34;4974583;28;20655;-67
2022/08/26 10:34:31;;;;;;;6.97;6.23;;;43.10;44.10;;;44.62;20.79;100212.06;4970978;28;20671;-67
2022/08/26 10:37:15;;;;;;;6.80;5.70;;;41.60;45.10;;;43.28;22.31;100215.75;4973947;28;20627;-67
2022/08/26 10:40:04;;;;;;;6.30;5.70;;;40.70;45.90;;;41.51;24.07;100215.19;4973766;28;21159;-67
2022/08/26 10:45:27;;;;;;;7.63;6.30;;;38.60;48.10;;;39.79;26.01;100207.66;4953599;29;20688;-68